sensor_id;sensor_type;location;lat;lon;timestamp;temperature;humidity
5962;DHT22;3007;50.770;0.250;2022-09-21T00:01:26;12.90;99.90
5962;DHT22;3007;50.770;0.250;2022-09-21T00:03:54;12.90;99.90
5962;DHT22;3007;50.770;0.250;2022-09-21T00:06:23;12.80;99.90
5962;DHT22;3007;50.770;0.250;2022-09-21T00:08:51;12.80;99.90
5962;DHT22;3007;50.770;0.250;2022-09-21T00:11:19;12.80;99.90
5962;DHT22;3007;50.770;0.250;2022-09-21T00:13:51;12.80;99.90
5962;DHT22;3007;50.770;0.250;2022-09-21T00:16:18;12.80;99.90
5962;DHT22;3007;50.770;0.250;2022-09-21T00:18:47;12.80;99.90
5962;DHT22;3007;50.770;0.250;2022-09-21T00:21:15;12.70;99.90
5962;DHT22;3007;50.770;0.250;2022-09-21T00:23:43;12.70;99.90
5962;DHT22;3007;50.770;0.250;2022-09-21T00:26:12;12.70;99.90
5962;DHT22;3007;50.770;0.250;2022-09-21T00:28:39;12.70;99.90
5962;DHT22;3007;50.770;0.250;2022-09-21T00:31:08;12.70;99.90
5962;DHT22;3007;50.770;0.250;2022-09-21T00:33:36;12.60;99.90
5962;DHT22;3007;50.770;0.250;2022-09-21T00:36:06;12.60;99.90
5962;DHT22;3007;50.770;0.250;2022-09-21T00:38:34;12.60;99.90
5962;DHT22;3007;50.770;0.250;2022-09-21T00:41:01;12.60;99.90
5962;DHT22;3007;50.770;0.250;2022-09-21T00:43:30;12.50;99.90
5962;DHT22;3007;50.770;0.250;2022-09-21T00:46:01;12.60;99.90
5962;DHT22;3007;50.770;0.250;2022-09-21T00:48:29;12.60;99.90
5962;DHT22;3007;50.770;0.250;2022-09-21T00:51:00;12.60;99.90
5962;DHT22;3007;50.770;0.250;2022-09-21T00:53:30;12.50;99.90
5962;DHT22;3007;50.770;0.250;2022-09-21T00:55:58;12.50;99.90
5962;DHT22;3007;50.770;0.250;2022-09-21T00:58:29;12.50;99.90
5962;DHT22;3007;50.770;0.250;2022-09-21T01:00:58;12.50;99.90
5962;DHT22;3007;50.770;0.250;2022-09-21T01:03:26;12.50;99.90
5962;DHT22;3007;50.770;0.250;2022-09-21T01:05:55;12.40;99.90
5962;DHT22;3007;50.770;0.250;2022-09-21T01:08:23;12.40;99.90
5962;DHT22;3007;50.770;0.250;2022-09-21T01:11:18;12.50;99.90
5962;DHT22;3007;50.770;0.250;2022-09-21T01:14:02;12.40;99.90
5962;DHT22;3007;50.770;0.250;2022-09-21T01:16:35;12.50;99.90
5962;DHT22;3007;50.770;0.250;2022-09-21T01:19:14;12.40;99.90
5962;DHT22;3007;50.770;0.250;2022-09-21T01:21:50;12.40;99.90
5962;DHT22;3007;50.770;0.250;2022-09-21T01:24:44;12.40;99.90
5962;DHT22;3007;50.770;0.250;2022-09-21T01:27:45;12.40;99.90
5962;DHT22;3007;50.770;0.250;2022-09-21T01:30:17;12.40;99.90
5962;DHT22;3007;50.770;0.250;2022-09-21T01:32:49;12.40;99.90
5962;DHT22;3007;50.770;0.250;2022-09-21T01:35:19;12.30;99.90
5962;DHT22;3007;50.770;0.250;2022-09-21T01:37:52;12.30;99.90
5962;DHT22;3007;50.770;0.250;2022-09-21T01:40:25;12.30;99.90
5962;DHT22;3007;50.770;0.250;2022-09-21T01:42:54;12.30;99.90
5962;DHT22;3007;50.770;0.250;2022-09-21T01:45:28;12.30;99.90
5962;DHT22;3007;50.770;0.250;2022-09-21T01:47:58;12.30;99.90
5962;DHT22;3007;50.770;0.250;2022-09-21T01:50:29;12.30;99.90
5962;DHT22;3007;50.770;0.250;2022-09-21T01:52:59;12.30;99.90
5962;DHT22;3007;50.770;0.250;2022-09-21T01:55:31;12.30;99.90
5962;DHT22;3007;50.770;0.250;2022-09-21T01:58:06;12.30;99.90
5962;DHT22;3007;50.770;0.250;2022-09-21T02:00:37;12.20;99.90
5962;DHT22;3007;50.770;0.250;2022-09-21T02:03:08;12.20;99.90
5962;DHT22;3007;50.770;0.250;2022-09-21T02:05:39;13.00;99.90
5962;DHT22;3007;50.770;0.250;2022-09-21T02:08:07;12.20;99.90
5962;DHT22;3007;50.770;0.250;2022-09-21T02:10:37;12.20;99.90
5962;DHT22;3007;50.770;0.250;2022-09-21T02:13:06;12.20;99.90
5962;DHT22;3007;50.770;0.250;2022-09-21T02:15:45;12.20;99.90
5962;DHT22;3007;50.770;0.250;2022-09-21T02:18:20;12.20;99.90
5962;DHT22;3007;50.770;0.250;2022-09-21T02:20:56;12.20;99.90
5962;DHT22;3007;50.770;0.250;2022-09-21T02:23:26;12.20;99.90
5962;DHT22;3007;50.770;0.250;2022-09-21T02:26:02;12.20;99.90
5962;DHT22;3007;50.770;0.250;2022-09-21T02:28:38;12.20;99.90
5962;DHT22;3007;50.770;0.250;2022-09-21T02:31:14;12.10;99.90
5962;DHT22;3007;50.770;0.250;2022-09-21T02:33:46;12.10;99.90
5962;DHT22;3007;50.770;0.250;2022-09-21T02:36:21;12.10;99.90
5962;DHT22;3007;50.770;0.250;2022-09-21T02:39:02;12.10;99.90
5962;DHT22;3007;50.770;0.250;2022-09-21T02:41:36;12.10;99.90
5962;DHT22;3007;50.770;0.250;2022-09-21T02:44:07;12.10;99.90
5962;DHT22;3007;50.770;0.250;2022-09-21T02:46:41;12.10;99.90
5962;DHT22;3007;50.770;0.250;2022-09-21T02:49:15;12.10;99.90
5962;DHT22;3007;50.770;0.250;2022-09-21T02:51:46;12.00;99.90
5962;DHT22;3007;50.770;0.250;2022-09-21T02:54:16;12.00;99.90
5962;DHT22;3007;50.770;0.250;2022-09-21T02:56:46;12.00;99.90
5962;DHT22;3007;50.770;0.250;2022-09-21T02:59:14;12.00;99.90
5962;DHT22;3007;50.770;0.250;2022-09-21T03:01:43;12.00;99.90
5962;DHT22;3007;50.770;0.250;2022-09-21T03:04:10;12.00;99.90
5962;DHT22;3007;50.770;0.250;2022-09-21T03:06:37;12.00;99.90
5962;DHT22;3007;50.770;0.250;2022-09-21T03:09:04;11.90;99.90
5962;DHT22;3007;50.770;0.250;2022-09-21T03:11:31;11.90;99.90
5962;DHT22;3007;50.770;0.250;2022-09-21T03:13:58;11.90;99.90
5962;DHT22;3007;50.770;0.250;2022-09-21T03:16:25;11.90;99.90
5962;DHT22;3007;50.770;0.250;2022-09-21T03:18:54;11.90;99.90
5962;DHT22;3007;50.770;0.250;2022-09-21T03:21:21;11.90;99.90
5962;DHT22;3007;50.770;0.250;2022-09-21T03:23:48;11.90;99.90
5962;DHT22;3007;50.770;0.250;2022-09-21T03:26:14;11.80;99.90
5962;DHT22;3007;50.770;0.250;2022-09-21T03:28:41;11.80;99.90
5962;DHT22;3007;50.770;0.250;2022-09-21T03:31:08;11.80;99.90
5962;DHT22;3007;50.770;0.250;2022-09-21T03:33:35;11.80;99.90
5962;DHT22;3007;50.770;0.250;2022-09-21T03:36:04;11.70;99.90
5962;DHT22;3007;50.770;0.250;2022-09-21T03:38:31;11.70;99.90
5962;DHT22;3007;50.770;0.250;2022-09-21T03:40:57;11.70;99.90
5962;DHT22;3007;50.770;0.250;2022-09-21T03:43:24;11.70;99.90
5962;DHT22;3007;50.770;0.250;2022-09-21T03:45:51;11.60;99.90
5962;DHT22;3007;50.770;0.250;2022-09-21T03:48:18;11.60;99.90
5962;DHT22;3007;50.770;0.250;2022-09-21T03:50:46;11.60;99.90
5962;DHT22;3007;50.770;0.250;2022-09-21T03:53:15;11.60;99.90
5962;DHT22;3007;50.770;0.250;2022-09-21T03:55:42;11.60;99.90
5962;DHT22;3007;50.770;0.250;2022-09-21T03:58:09;11.60;99.90
5962;DHT22;3007;50.770;0.250;2022-09-21T04:00:36;11.60;99.90
5962;DHT22;3007;50.770;0.250;2022-09-21T04:03:03;11.50;99.90
5962;DHT22;3007;50.770;0.250;2022-09-21T04:05:30;11.50;99.90
5962;DHT22;3007;50.770;0.250;2022-09-21T04:07:57;11.50;99.90
5962;DHT22;3007;50.770;0.250;2022-09-21T04:10:28;11.50;99.90
5962;DHT22;3007;50.770;0.250;2022-09-21T04:12:57;11.50;99.90
5962;DHT22;3007;50.770;0.250;2022-09-21T04:15:25;11.50;99.90
5962;DHT22;3007;50.770;0.250;2022-09-21T04:17:53;11.50;99.90
5962;DHT22;3007;50.770;0.250;2022-09-21T04:20:20;11.50;99.90
5962;DHT22;3007;50.770;0.250;2022-09-21T04:22:47;11.50;99.90
5962;DHT22;3007;50.770;0.250;2022-09-21T04:25:15;11.50;99.90
5962;DHT22;3007;50.770;0.250;2022-09-21T04:27:43;11.40;99.90
5962;DHT22;3007;50.770;0.250;2022-09-21T04:30:12;11.40;99.90
5962;DHT22;3007;50.770;0.250;2022-09-21T04:32:39;11.40;99.90
5962;DHT22;3007;50.770;0.250;2022-09-21T04:35:06;10.80;99.90
5962;DHT22;3007;50.770;0.250;2022-09-21T04:37:33;11.40;99.90
5962;DHT22;3007;50.770;0.250;2022-09-21T04:40:02;11.40;99.90
5962;DHT22;3007;50.770;0.250;2022-09-21T04:42:28;11.40;99.90
5962;DHT22;3007;50.770;0.250;2022-09-21T04:44:57;11.40;99.90
5962;DHT22;3007;50.770;0.250;2022-09-21T04:47:23;11.40;99.90
5962;DHT22;3007;50.770;0.250;2022-09-21T04:49:50;11.40;99.90
5962;DHT22;3007;50.770;0.250;2022-09-21T04:52:18;11.30;99.90
5962;DHT22;3007;50.770;0.250;2022-09-21T04:54:45;11.40;99.90
5962;DHT22;3007;50.770;0.250;2022-09-21T04:57:12;11.30;99.90
5962;DHT22;3007;50.770;0.250;2022-09-21T04:59:39;11.40;99.90
5962;DHT22;3007;50.770;0.250;2022-09-21T05:02:07;11.30;99.90
5962;DHT22;3007;50.770;0.250;2022-09-21T05:04:34;11.40;99.90
5962;DHT22;3007;50.770;0.250;2022-09-21T05:07:01;11.40;99.90
5962;DHT22;3007;50.770;0.250;2022-09-21T05:09:28;11.40;99.90
5962;DHT22;3007;50.770;0.250;2022-09-21T05:12:12;11.40;99.90
5962;DHT22;3007;50.770;0.250;2022-09-21T05:14:39;11.40;99.90
5962;DHT22;3007;50.770;0.250;2022-09-21T05:17:10;11.40;99.90
5962;DHT22;3007;50.770;0.250;2022-09-21T05:19:37;11.30;99.90
5962;DHT22;3007;50.770;0.250;2022-09-21T05:22:04;11.30;99.90
5962;DHT22;3007;50.770;0.250;2022-09-21T05:24:30;11.30;99.90
5962;DHT22;3007;50.770;0.250;2022-09-21T05:26:57;11.30;99.90
5962;DHT22;3007;50.770;0.250;2022-09-21T05:29:25;11.30;99.90
5962;DHT22;3007;50.770;0.250;2022-09-21T05:31:56;11.30;99.90
5962;DHT22;3007;50.770;0.250;2022-09-21T05:34:41;11.30;99.90
5962;DHT22;3007;50.770;0.250;2022-09-21T05:37:21;11.30;99.90
5962;DHT22;3007;50.770;0.250;2022-09-21T05:39:56;11.30;99.90
5962;DHT22;3007;50.770;0.250;2022-09-21T05:42:23;11.30;99.90
5962;DHT22;3007;50.770;0.250;2022-09-21T05:44:51;11.20;99.90
5962;DHT22;3007;50.770;0.250;2022-09-21T05:47:23;11.20;99.90
5962;DHT22;3007;50.770;0.250;2022-09-21T05:50:01;11.30;99.90
5962;DHT22;3007;50.770;0.250;2022-09-21T05:52:37;11.30;99.90
5962;DHT22;3007;50.770;0.250;2022-09-21T05:55:17;11.30;99.90
5962;DHT22;3007;50.770;0.250;2022-09-21T05:57:51;11.30;99.90
5962;DHT22;3007;50.770;0.250;2022-09-21T06:00:22;11.30;99.90
5962;DHT22;3007;50.770;0.250;2022-09-21T06:03:16;11.30;99.90
5962;DHT22;3007;50.770;0.250;2022-09-21T06:05:47;11.30;99.90
5962;DHT22;3007;50.770;0.250;2022-09-21T06:08:14;11.30;99.90
5962;DHT22;3007;50.770;0.250;2022-09-21T06:10:41;11.40;99.90
5962;DHT22;3007;50.770;0.250;2022-09-21T06:13:07;11.40;99.90
5962;DHT22;3007;50.770;0.250;2022-09-21T06:15:35;11.40;99.90
5962;DHT22;3007;50.770;0.250;2022-09-21T06:18:03;11.50;99.90
5962;DHT22;3007;50.770;0.250;2022-09-21T06:20:30;11.60;99.90
5962;DHT22;3007;50.770;0.250;2022-09-21T06:23:01;11.60;99.90
5962;DHT22;3007;50.770;0.250;2022-09-21T06:25:28;11.90;99.90
5962;DHT22;3007;50.770;0.250;2022-09-21T06:27:56;12.10;99.90
5962;DHT22;3007;50.770;0.250;2022-09-21T06:30:26;12.20;99.90
5962;DHT22;3007;50.770;0.250;2022-09-21T06:32:57;12.30;99.90
5962;DHT22;3007;50.770;0.250;2022-09-21T06:35:24;12.30;99.90
5962;DHT22;3007;50.770;0.250;2022-09-21T06:37:51;12.50;99.90
5962;DHT22;3007;50.770;0.250;2022-09-21T06:40:19;12.40;99.90
5962;DHT22;3007;50.770;0.250;2022-09-21T06:42:46;12.40;99.90
5962;DHT22;3007;50.770;0.250;2022-09-21T06:45:13;12.50;99.90
5962;DHT22;3007;50.770;0.250;2022-09-21T06:47:46;12.60;99.90
5962;DHT22;3007;50.770;0.250;2022-09-21T06:50:13;12.90;99.90
5962;DHT22;3007;50.770;0.250;2022-09-21T06:52:40;13.40;99.90
5962;DHT22;3007;50.770;0.250;2022-09-21T06:55:07;13.90;99.90
5962;DHT22;3007;50.770;0.250;2022-09-21T06:57:36;14.40;99.90
5962;DHT22;3007;50.770;0.250;2022-09-21T07:00:04;15.00;99.90
5962;DHT22;3007;50.770;0.250;2022-09-21T07:02:31;15.40;99.90
5962;DHT22;3007;50.770;0.250;2022-09-21T07:04:59;15.80;99.90
5962;DHT22;3007;50.770;0.250;2022-09-21T07:07:27;16.20;99.90
5962;DHT22;3007;50.770;0.250;2022-09-21T07:09:55;16.50;99.90
5962;DHT22;3007;50.770;0.250;2022-09-21T07:12:24;16.80;99.90
5962;DHT22;3007;50.770;0.250;2022-09-21T07:14:52;17.10;99.90
5962;DHT22;3007;50.770;0.250;2022-09-21T07:17:19;17.30;99.90
5962;DHT22;3007;50.770;0.250;2022-09-21T07:19:46;17.50;99.90
5962;DHT22;3007;50.770;0.250;2022-09-21T07:22:15;17.80;99.90
5962;DHT22;3007;50.770;0.250;2022-09-21T07:24:42;17.90;99.90
5962;DHT22;3007;50.770;0.250;2022-09-21T07:27:09;18.10;99.90
5962;DHT22;3007;50.770;0.250;2022-09-21T07:29:36;18.20;99.90
5962;DHT22;3007;50.770;0.250;2022-09-21T07:32:04;18.30;99.90
5962;DHT22;3007;50.770;0.250;2022-09-21T07:34:34;18.40;99.90
5962;DHT22;3007;50.770;0.250;2022-09-21T07:37:01;18.50;99.90
5962;DHT22;3007;50.770;0.250;2022-09-21T07:39:30;18.60;99.90
5962;DHT22;3007;50.770;0.250;2022-09-21T07:41:57;18.80;99.90
5962;DHT22;3007;50.770;0.250;2022-09-21T07:44:24;18.90;99.90
5962;DHT22;3007;50.770;0.250;2022-09-21T07:46:51;19.00;99.90
5962;DHT22;3007;50.770;0.250;2022-09-21T07:49:20;19.00;99.90
5962;DHT22;3007;50.770;0.250;2022-09-21T07:51:47;19.10;99.90
5962;DHT22;3007;50.770;0.250;2022-09-21T07:54:14;19.10;99.90
5962;DHT22;3007;50.770;0.250;2022-09-21T07:56:41;19.20;99.90
5962;DHT22;3007;50.770;0.250;2022-09-21T07:59:28;19.20;99.90
5962;DHT22;3007;50.770;0.250;2022-09-21T08:01:57;19.20;99.90
5962;DHT22;3007;50.770;0.250;2022-09-21T08:04:26;19.30;99.90
5962;DHT22;3007;50.770;0.250;2022-09-21T08:06:53;19.30;99.90
5962;DHT22;3007;50.770;0.250;2022-09-21T08:09:20;19.30;99.90
5962;DHT22;3007;50.770;0.250;2022-09-21T08:11:48;19.30;99.90
5962;DHT22;3007;50.770;0.250;2022-09-21T08:14:16;19.30;99.90
5962;DHT22;3007;50.770;0.250;2022-09-21T08:16:45;19.30;99.90
5962;DHT22;3007;50.770;0.250;2022-09-21T08:19:13;19.10;99.90
5962;DHT22;3007;50.770;0.250;2022-09-21T08:21:42;18.90;99.90
5962;DHT22;3007;50.770;0.250;2022-09-21T08:24:09;18.70;99.90
5962;DHT22;3007;50.770;0.250;2022-09-21T08:26:38;18.40;99.90
5962;DHT22;3007;50.770;0.250;2022-09-21T08:29:05;18.20;99.90
5962;DHT22;3007;50.770;0.250;2022-09-21T08:31:33;18.00;99.90
5962;DHT22;3007;50.770;0.250;2022-09-21T08:34:07;17.80;99.90
5962;DHT22;3007;50.770;0.250;2022-09-21T08:36:34;18.10;99.90
5962;DHT22;3007;50.770;0.250;2022-09-21T08:39:05;17.40;99.90
5962;DHT22;3007;50.770;0.250;2022-09-21T08:41:48;17.30;99.90
5962;DHT22;3007;50.770;0.250;2022-09-21T08:44:21;17.20;99.90
5962;DHT22;3007;50.770;0.250;2022-09-21T08:46:56;17.10;99.90
5962;DHT22;3007;50.770;0.250;2022-09-21T08:49:29;17.00;99.90
5962;DHT22;3007;50.770;0.250;2022-09-21T08:51:59;17.00;99.90
5962;DHT22;3007;50.770;0.250;2022-09-21T08:54:34;17.00;99.90
5962;DHT22;3007;50.770;0.250;2022-09-21T08:57:04;17.00;99.90
5962;DHT22;3007;50.770;0.250;2022-09-21T08:59:32;16.90;99.90
5962;DHT22;3007;50.770;0.250;2022-09-21T09:02:04;16.90;99.90
5962;DHT22;3007;50.770;0.250;2022-09-21T09:04:48;16.80;99.90
5962;DHT22;3007;50.770;0.250;2022-09-21T09:07:35;16.80;99.90
5962;DHT22;3007;50.770;0.250;2022-09-21T09:10:19;16.80;99.90
5962;DHT22;3007;50.770;0.250;2022-09-21T09:12:56;16.70;99.90
5962;DHT22;3007;50.770;0.250;2022-09-21T09:15:52;16.70;99.90
5962;DHT22;3007;50.770;0.250;2022-09-21T09:18:26;16.80;99.90
5962;DHT22;3007;50.770;0.250;2022-09-21T09:20:57;16.80;99.90
5962;DHT22;3007;50.770;0.250;2022-09-21T09:23:27;16.80;99.90
5962;DHT22;3007;50.770;0.250;2022-09-21T09:26:02;16.80;99.90
5962;DHT22;3007;50.770;0.250;2022-09-21T09:28:34;16.80;99.90
5962;DHT22;3007;50.770;0.250;2022-09-21T09:31:05;16.90;99.90
5962;DHT22;3007;50.770;0.250;2022-09-21T09:33:44;16.90;99.90
5962;DHT22;3007;50.770;0.250;2022-09-21T09:36:14;16.90;99.90
5962;DHT22;3007;50.770;0.250;2022-09-21T09:38:44;17.00;99.90
5962;DHT22;3007;50.770;0.250;2022-09-21T09:41:40;17.00;99.90
5962;DHT22;3007;50.770;0.250;2022-09-21T09:44:19;17.00;99.90
5962;DHT22;3007;50.770;0.250;2022-09-21T09:46:57;17.00;99.90
5962;DHT22;3007;50.770;0.250;2022-09-21T09:49:32;17.00;99.90
5962;DHT22;3007;50.770;0.250;2022-09-21T09:51:59;17.00;99.90
5962;DHT22;3007;50.770;0.250;2022-09-21T09:54:28;17.00;99.90
5962;DHT22;3007;50.770;0.250;2022-09-21T09:57:02;17.00;99.90
5962;DHT22;3007;50.770;0.250;2022-09-21T09:59:34;17.00;99.90
5962;DHT22;3007;50.770;0.250;2022-09-21T10:02:05;17.00;99.90
5962;DHT22;3007;50.770;0.250;2022-09-21T10:04:32;17.00;99.90
5962;DHT22;3007;50.770;0.250;2022-09-21T10:07:00;17.10;99.90
5962;DHT22;3007;50.770;0.250;2022-09-21T10:09:29;17.10;99.90
5962;DHT22;3007;50.770;0.250;2022-09-21T10:11:59;17.10;99.90
5962;DHT22;3007;50.770;0.250;2022-09-21T10:14:31;17.20;99.90
5962;DHT22;3007;50.770;0.250;2022-09-21T10:17:04;17.20;99.90
5962;DHT22;3007;50.770;0.250;2022-09-21T10:19:31;17.10;99.90
5962;DHT22;3007;50.770;0.250;2022-09-21T10:22:00;17.20;99.90
5962;DHT22;3007;50.770;0.250;2022-09-21T10:24:29;17.20;99.90
5962;DHT22;3007;50.770;0.250;2022-09-21T10:27:04;17.20;99.90
5962;DHT22;3007;50.770;0.250;2022-09-21T10:29:39;17.20;99.90
5962;DHT22;3007;50.770;0.250;2022-09-21T10:32:21;17.20;99.90
5962;DHT22;3007;50.770;0.250;2022-09-21T10:35:13;17.20;99.90
5962;DHT22;3007;50.770;0.250;2022-09-21T10:37:41;17.20;99.90
5962;DHT22;3007;50.770;0.250;2022-09-21T10:40:24;17.30;99.90
5962;DHT22;3007;50.770;0.250;2022-09-21T10:42:54;17.30;99.90
5962;DHT22;3007;50.770;0.250;2022-09-21T10:45:26;17.30;99.90
5962;DHT22;3007;50.770;0.250;2022-09-21T10:47:55;17.30;99.90
5962;DHT22;3007;50.770;0.250;2022-09-21T10:50:26;17.40;99.90
5962;DHT22;3007;50.770;0.250;2022-09-21T10:53:01;17.40;99.90
5962;DHT22;3007;50.770;0.250;2022-09-21T10:55:41;17.40;99.90
5962;DHT22;3007;50.770;0.250;2022-09-21T10:58:10;17.50;99.90
5962;DHT22;3007;50.770;0.250;2022-09-21T11:00:42;17.50;99.90
5962;DHT22;3007;50.770;0.250;2022-09-21T11:03:41;17.60;99.90
5962;DHT22;3007;50.770;0.250;2022-09-21T11:06:13;17.50;99.90
5962;DHT22;3007;50.770;0.250;2022-09-21T11:08:45;17.60;99.90
5962;DHT22;3007;50.770;0.250;2022-09-21T11:11:40;17.60;99.90
5962;DHT22;3007;50.770;0.250;2022-09-21T11:14:15;17.70;99.90
5962;DHT22;3007;50.770;0.250;2022-09-21T11:16:50;17.70;99.90
5962;DHT22;3007;50.770;0.250;2022-09-21T11:19:24;17.80;99.90
5962;DHT22;3007;50.770;0.250;2022-09-21T11:21:56;17.80;99.90
5962;DHT22;3007;50.770;0.250;2022-09-21T11:24:32;17.80;99.90
5962;DHT22;3007;50.770;0.250;2022-09-21T11:27:05;17.80;99.90
5962;DHT22;3007;50.770;0.250;2022-09-21T11:29:41;17.90;99.90
5962;DHT22;3007;50.770;0.250;2022-09-21T11:32:23;17.90;99.90
5962;DHT22;3007;50.770;0.250;2022-09-21T11:35:20;18.00;99.90
5962;DHT22;3007;50.770;0.250;2022-09-21T11:37:57;18.00;99.90
5962;DHT22;3007;50.770;0.250;2022-09-21T11:40:38;18.10;99.90
5962;DHT22;3007;50.770;0.250;2022-09-21T11:43:19;18.20;99.90
5962;DHT22;3007;50.770;0.250;2022-09-21T11:45:57;18.30;99.90
5962;DHT22;3007;50.770;0.250;2022-09-21T11:48:37;18.40;99.90
5962;DHT22;3007;50.770;0.250;2022-09-21T11:51:18;18.60;99.90
5962;DHT22;3007;50.770;0.250;2022-09-21T11:54:14;18.70;99.90
5962;DHT22;3007;50.770;0.250;2022-09-21T11:56:49;18.90;99.90
5962;DHT22;3007;50.770;0.250;2022-09-21T11:59:32;19.10;99.90
5962;DHT22;3007;50.770;0.250;2022-09-21T12:02:30;19.20;99.90
5962;DHT22;3007;50.770;0.250;2022-09-21T12:05:05;19.40;99.90
5962;DHT22;3007;50.770;0.250;2022-09-21T12:07:53;19.50;99.90
5962;DHT22;3007;50.770;0.250;2022-09-21T12:10:37;19.60;99.90
5962;DHT22;3007;50.770;0.250;2022-09-21T12:13:20;19.70;99.90
5962;DHT22;3007;50.770;0.250;2022-09-21T12:15:53;19.70;99.90
5962;DHT22;3007;50.770;0.250;2022-09-21T12:18:27;19.80;99.90
5962;DHT22;3007;50.770;0.250;2022-09-21T12:21:04;19.90;99.90
5962;DHT22;3007;50.770;0.250;2022-09-21T12:23:39;19.90;99.90
5962;DHT22;3007;50.770;0.250;2022-09-21T12:26:08;19.90;99.90
5962;DHT22;3007;50.770;0.250;2022-09-21T12:28:39;19.90;99.90
5962;DHT22;3007;50.770;0.250;2022-09-21T12:31:13;20.00;99.90
5962;DHT22;3007;50.770;0.250;2022-09-21T12:33:46;20.10;99.90
5962;DHT22;3007;50.770;0.250;2022-09-21T12:36:18;20.20;99.90
5962;DHT22;3007;50.770;0.250;2022-09-21T12:38:57;20.20;99.90
5962;DHT22;3007;50.770;0.250;2022-09-21T12:41:32;20.30;99.90
5962;DHT22;3007;50.770;0.250;2022-09-21T12:44:14;20.30;99.90
5962;DHT22;3007;50.770;0.250;2022-09-21T12:46:44;20.20;99.90
5962;DHT22;3007;50.770;0.250;2022-09-21T12:49:16;20.20;99.90
5962;DHT22;3007;50.770;0.250;2022-09-21T12:51:49;20.20;99.90
5962;DHT22;3007;50.770;0.250;2022-09-21T12:54:25;20.20;99.90
5962;DHT22;3007;50.770;0.250;2022-09-21T12:56:59;20.20;99.90
5962;DHT22;3007;50.770;0.250;2022-09-21T12:59:33;20.20;99.90
5962;DHT22;3007;50.770;0.250;2022-09-21T13:02:11;20.20;99.90
5962;DHT22;3007;50.770;0.250;2022-09-21T13:04:50;20.20;99.90
5962;DHT22;3007;50.770;0.250;2022-09-21T13:07:50;20.20;99.90
5962;DHT22;3007;50.770;0.250;2022-09-21T13:10:33;20.20;99.90
5962;DHT22;3007;50.770;0.250;2022-09-21T13:13:05;20.30;99.90
5962;DHT22;3007;50.770;0.250;2022-09-21T13:15:42;20.20;99.90
5962;DHT22;3007;50.770;0.250;2022-09-21T13:18:18;20.20;99.90
5962;DHT22;3007;50.770;0.250;2022-09-21T13:20:46;20.20;99.90
5962;DHT22;3007;50.770;0.250;2022-09-21T13:23:22;20.30;99.90
5962;DHT22;3007;50.770;0.250;2022-09-21T13:26:02;20.30;99.90
5962;DHT22;3007;50.770;0.250;2022-09-21T13:29:02;20.30;99.90
5962;DHT22;3007;50.770;0.250;2022-09-21T13:31:39;20.40;99.90
5962;DHT22;3007;50.770;0.250;2022-09-21T13:34:20;20.40;99.90
5962;DHT22;3007;50.770;0.250;2022-09-21T13:40:34;20.40;99.90
5962;DHT22;3007;50.770;0.250;2022-09-21T13:43:20;20.40;99.90
5962;DHT22;3007;50.770;0.250;2022-09-21T13:45:51;20.50;99.90
5962;DHT22;3007;50.770;0.250;2022-09-21T13:48:20;20.50;99.90
5962;DHT22;3007;50.770;0.250;2022-09-21T13:50:56;20.50;99.90
5962;DHT22;3007;50.770;0.250;2022-09-21T13:53:28;20.60;99.90
5962;DHT22;3007;50.770;0.250;2022-09-21T13:56:06;20.60;99.90
5962;DHT22;3007;50.770;0.250;2022-09-21T13:58:39;20.50;99.90
5962;DHT22;3007;50.770;0.250;2022-09-21T14:01:13;20.50;99.90
5962;DHT22;3007;50.770;0.250;2022-09-21T14:03:45;20.60;99.90
5962;DHT22;3007;50.770;0.250;2022-09-21T14:06:16;20.50;95.30
5962;DHT22;3007;50.770;0.250;2022-09-21T14:08:49;20.40;99.90
5962;DHT22;3007;50.770;0.250;2022-09-21T14:11:21;20.50;99.90
5962;DHT22;3007;50.770;0.250;2022-09-21T14:14:05;20.50;99.90
5962;DHT22;3007;50.770;0.250;2022-09-21T14:16:50;20.50;99.90
5962;DHT22;3007;50.770;0.250;2022-09-21T14:22:39;20.40;99.90
5962;DHT22;3007;50.770;0.250;2022-09-21T14:25:23;20.30;99.90
5962;DHT22;3007;50.770;0.250;2022-09-21T14:27:55;20.40;99.90
5962;DHT22;3007;50.770;0.250;2022-09-21T14:30:25;20.30;99.90
5962;DHT22;3007;50.770;0.250;2022-09-21T14:35:52;20.30;99.90
5962;DHT22;3007;50.770;0.250;2022-09-21T14:38:23;20.30;99.90
5962;DHT22;3007;50.770;0.250;2022-09-21T14:40:53;20.30;99.90
5962;DHT22;3007;50.770;0.250;2022-09-21T14:43:26;20.30;99.90
5962;DHT22;3007;50.770;0.250;2022-09-21T14:46:19;20.30;99.90
5962;DHT22;3007;50.770;0.250;2022-09-21T14:48:58;20.20;99.90
5962;DHT22;3007;50.770;0.250;2022-09-21T14:51:39;20.10;99.90
5962;DHT22;3007;50.770;0.250;2022-09-21T14:54:26;20.00;99.90
5962;DHT22;3007;50.770;0.250;2022-09-21T14:57:21;20.00;99.90
5962;DHT22;3007;50.770;0.250;2022-09-21T15:00:15;20.00;99.90
5962;DHT22;3007;50.770;0.250;2022-09-21T15:02:47;20.00;99.90
5962;DHT22;3007;50.770;0.250;2022-09-21T15:05:20;20.10;99.90
5962;DHT22;3007;50.770;0.250;2022-09-21T15:07:59;20.10;99.90
5962;DHT22;3007;50.770;0.250;2022-09-21T15:10:52;20.10;99.90
5962;DHT22;3007;50.770;0.250;2022-09-21T15:13:38;20.10;99.90
5962;DHT22;3007;50.770;0.250;2022-09-21T15:16:26;20.10;99.90
5962;DHT22;3007;50.770;0.250;2022-09-21T15:19:07;20.10;99.90
5962;DHT22;3007;50.770;0.250;2022-09-21T15:21:40;20.10;99.90
5962;DHT22;3007;50.770;0.250;2022-09-21T15:24:21;20.10;99.90
5962;DHT22;3007;50.770;0.250;2022-09-21T15:26:50;20.10;99.90
5962;DHT22;3007;50.770;0.250;2022-09-21T15:29:24;20.00;99.90
5962;DHT22;3007;50.770;0.250;2022-09-21T15:31:53;20.00;99.90
5962;DHT22;3007;50.770;0.250;2022-09-21T15:34:21;19.90;99.90
5962;DHT22;3007;50.770;0.250;2022-09-21T15:36:49;19.90;99.90
5962;DHT22;3007;50.770;0.250;2022-09-21T15:39:26;19.90;99.90
5962;DHT22;3007;50.770;0.250;2022-09-21T15:42:15;19.90;99.90
5962;DHT22;3007;50.770;0.250;2022-09-21T15:44:45;19.90;99.90
5962;DHT22;3007;50.770;0.250;2022-09-21T15:47:17;19.90;99.90
5962;DHT22;3007;50.770;0.250;2022-09-21T15:49:45;19.90;99.90
5962;DHT22;3007;50.770;0.250;2022-09-21T15:52:17;19.90;99.90
5962;DHT22;3007;50.770;0.250;2022-09-21T15:54:49;19.80;99.90
5962;DHT22;3007;50.770;0.250;2022-09-21T15:57:33;19.90;99.90
5962;DHT22;3007;50.770;0.250;2022-09-21T16:00:04;19.80;99.90
5962;DHT22;3007;50.770;0.250;2022-09-21T16:02:37;19.80;99.90
5962;DHT22;3007;50.770;0.250;2022-09-21T16:05:06;19.80;99.90
5962;DHT22;3007;50.770;0.250;2022-09-21T16:07:39;19.80;99.90
5962;DHT22;3007;50.770;0.250;2022-09-21T16:10:36;19.70;99.90
5962;DHT22;3007;50.770;0.250;2022-09-21T16:13:08;19.70;99.90
5962;DHT22;3007;50.770;0.250;2022-09-21T16:15:59;19.70;99.90
5962;DHT22;3007;50.770;0.250;2022-09-21T16:18:38;19.60;99.90
5962;DHT22;3007;50.770;0.250;2022-09-21T16:21:09;19.50;99.90
5962;DHT22;3007;50.770;0.250;2022-09-21T16:23:39;19.50;99.90
5962;DHT22;3007;50.770;0.250;2022-09-21T16:26:17;19.40;99.90
5962;DHT22;3007;50.770;0.250;2022-09-21T16:28:44;19.40;99.90
5962;DHT22;3007;50.770;0.250;2022-09-21T16:34:19;19.30;99.90
5962;DHT22;3007;50.770;0.250;2022-09-21T16:36:49;19.20;99.90
5962;DHT22;3007;50.770;0.250;2022-09-21T16:39:17;19.20;99.90
5962;DHT22;3007;50.770;0.250;2022-09-21T16:41:51;19.20;99.90
5962;DHT22;3007;50.770;0.250;2022-09-21T16:44:20;19.10;99.90
5962;DHT22;3007;50.770;0.250;2022-09-21T16:46:53;19.00;99.90
5962;DHT22;3007;50.770;0.250;2022-09-21T16:49:23;19.00;99.90
5962;DHT22;3007;50.770;0.250;2022-09-21T16:51:52;19.00;99.90